Time;durP1;ratioP1;P1;durP2;ratioP2;P2;SDS_P1;SDS_P2;PMS_P1;PMS_P2;Temp;Humidity;BMP_temperature;BMP_pressure;BME280_temperature;BME280_humidity;BME280_pressure;Samples;Min_cycle;Max_cycle;Signal;HPM_P1;HPM_P2
2023/07/17 00:02:15;;;;;;;4.10;3.67;;;16.20;1.00;;;;;;4992940;28;20184;-77
2023/07/17 00:04:40;;;;;;;5.32;3.80;;;16.10;1.00;;;;;;4997348;28;20214;-72
2023/07/17 00:07:06;;;;;;;5.60;3.78;;;15.90;1.00;;;;;;4976585;28;20275;-74
2023/07/17 00:09:32;;;;;;;4.07;3.25;;;15.80;1.00;;;;;;4993801;28;20238;-74
2023/07/17 00:11:58;;;;;;;4.65;3.50;;;15.80;1.00;;;;;;4994736;28;20176;-76
2023/07/17 00:14:23;;;;;;;4.18;3.45;;;15.90;1.00;;;;;;4991760;28;20649;-75
2023/07/17 00:16:49;;;;;;;4.28;3.40;;;16.00;1.00;;;;;;4994024;28;20190;-77
2023/07/17 00:19:15;;;;;;;5.18;4.00;;;16.00;1.00;;;;;;4992293;28;20184;-75
2023/07/17 00:21:40;;;;;;;4.97;3.60;;;15.90;1.00;;;;;;4993906;28;20307;-76
2023/07/17 00:24:06;;;;;;;5.40;3.70;;;16.00;1.00;;;;;;4995450;28;20216;-73
2023/07/17 00:26:31;;;;;;;5.68;3.83;;;16.10;1.00;;;;;;4993770;28;20650;-74
2023/07/17 00:29:24;;;;;;;3.83;3.30;;;16.00;1.00;;;;;;4993939;28;20183;-75
2023/07/17 00:31:51;;;;;;;6.00;4.07;;;15.80;1.00;;;;;;4995791;28;20180;-75
2023/07/17 00:34:18;;;;;;;4.07;3.67;;;15.70;1.00;;;;;;4993993;28;20199;-75
2023/07/17 00:36:44;;;;;;;4.28;3.33;;;15.60;1.00;;;;;;4992279;28;20266;-77
2023/07/17 00:39:10;;;;;;;4.40;3.42;;;15.70;1.00;;;;;;4992815;28;20569;-77
2023/07/17 00:41:36;;;;;;;4.72;3.88;;;15.80;1.00;;;;;;4993481;28;20188;-75
2023/07/17 00:44:03;;;;;;;4.72;3.95;;;16.00;1.00;;;;;;4995785;28;20317;-73
2023/07/17 00:46:30;;;;;;;4.63;3.92;;;16.20;1.00;;;;;;4992764;28;20590;-75
2023/07/17 00:48:55;;;;;;;5.22;4.20;;;16.40;1.00;;;;;;4994392;28;20202;-77
2023/07/17 00:54:44;;;;;;;5.07;3.50;;;16.30;1.00;;;;;;4992014;28;20210;-76
2023/07/17 00:57:13;;;;;;;5.05;4.05;;;16.10;1.00;;;;;;4990227;28;20188;-75
2023/07/17 00:59:41;;;;;;;5.88;3.80;;;15.90;1.00;;;;;;4996177;28;20617;-73
2023/07/17 01:02:08;;;;;;;4.00;3.60;;;15.70;1.00;;;;;;4994394;28;20176;-75
2023/07/17 01:04:35;;;;;;;5.30;4.22;;;15.50;1.00;;;;;;4997790;28;20211;-75
2023/07/17 01:07:01;;;;;;;5.28;4.10;;;15.50;1.00;;;;;;4994272;28;20188;-74
2023/07/17 01:09:27;;;;;;;4.90;4.18;;;15.80;1.00;;;;;;4990674;28;20212;-74
2023/07/17 01:11:52;;;;;;;6.13;4.35;;;15.90;1.00;;;;;;4991119;28;21029;-76
2023/07/17 01:14:19;;;;;;;4.93;4.03;;;16.00;1.00;;;;;;4994364;28;20204;-74
2023/07/17 01:16:46;;;;;;;3.90;3.60;;;16.00;1.00;;;;;;4983449;28;20582;-74
2023/07/17 01:19:12;;;;;;;5.90;3.97;;;16.00;1.00;;;;;;4999640;28;20358;-74
2023/07/17 01:22:01;;;;;;;5.05;3.95;;;15.90;1.00;;;;;;4996047;28;20286;-74
2023/07/17 01:24:27;;;;;;;4.45;3.70;;;15.90;1.00;;;;;;4996029;28;20286;-74
2023/07/17 01:26:52;;;;;;;5.15;4.43;;;16.00;1.00;;;;;;4992407;28;20307;-73
2023/07/17 01:29:18;;;;;;;5.15;4.05;;;16.10;1.00;;;;;;4998964;28;20171;-75
2023/07/17 01:31:44;;;;;;;7.07;4.10;;;16.20;1.00;;;;;;4994339;28;20636;-73
2023/07/17 01:34:10;;;;;;;4.13;3.83;;;16.40;1.00;;;;;;4981961;28;20685;-75
2023/07/17 01:36:35;;;;;;;4.20;3.85;;;16.40;1.00;;;;;;5000701;28;20198;-77
2023/07/17 01:39:01;;;;;;;6.68;4.28;;;16.50;1.00;;;;;;4998179;28;20658;-76
2023/07/17 01:41:27;;;;;;;5.35;4.38;;;16.60;1.00;;;;;;4994396;28;20206;-77
2023/07/17 01:43:53;;;;;;;4.88;4.32;;;16.50;1.00;;;;;;4995733;28;20687;-73
2023/07/17 01:46:19;;;;;;;5.50;4.20;;;16.50;1.00;;;;;;4998813;28;20206;-74
2023/07/17 01:48:45;;;;;;;4.88;4.18;;;16.60;1.00;;;;;;4996005;28;20181;-74
2023/07/17 01:51:10;;;;;;;6.07;4.22;;;16.60;1.00;;;;;;4997790;28;20180;-75
2023/07/17 01:53:36;;;;;;;4.93;4.15;;;16.60;1.00;;;;;;4998098;28;20642;-77
2023/07/17 01:56:02;;;;;;;6.00;4.82;;;16.60;1.00;;;;;;4993976;28;20315;-75
2023/07/17 01:58:28;;;;;;;5.32;4.45;;;16.50;1.00;;;;;;4996454;28;20180;-75
2023/07/17 02:00:55;;;;;;;6.22;4.47;;;16.40;1.00;;;;;;4989966;28;20188;-75
2023/07/17 02:03:21;;;;;;;4.45;4.05;;;16.30;1.00;;;;;;4996492;28;20176;-75
2023/07/17 02:05:46;;;;;;;4.72;4.13;;;16.30;1.00;;;;;;4984990;28;20682;-76
2023/07/17 02:08:12;;;;;;;6.43;4.22;;;16.40;1.00;;;;;;5001420;28;20188;-76
2023/07/17 02:10:43;;;;;;;4.78;4.03;;;16.40;1.00;;;;;;4993939;28;20188;-75
2023/07/17 02:13:09;;;;;;;5.35;4.82;;;16.40;1.00;;;;;;4995782;28;20215;-75
2023/07/17 02:15:34;;;;;;;4.57;3.92;;;16.40;1.00;;;;;;4996494;28;20695;-77
2023/07/17 02:18:00;;;;;;;5.18;4.68;;;16.40;1.00;;;;;;4994885;28;20199;-77
2023/07/17 02:20:26;;;;;;;6.00;5.30;;;16.30;1.00;;;;;;5000118;28;20182;-76
2023/07/17 02:22:52;;;;;;;5.82;4.68;;;16.30;1.00;;;;;;4998272;28;20188;-77
2023/07/17 02:25:18;;;;;;;4.82;4.40;;;16.10;1.00;;;;;;4995550;28;20273;-75
2023/07/17 02:27:43;;;;;;;5.65;4.22;;;16.00;1.00;;;;;;5001141;28;20175;-76
2023/07/17 02:30:10;;;;;;;5.60;4.75;;;15.90;1.00;;;;;;4988606;28;20264;-76
2023/07/17 02:32:37;;;;;;;4.53;4.13;;;15.80;1.00;;;;;;4993131;28;20180;-78
2023/07/17 02:35:05;;;;;;;5.07;4.38;;;15.90;1.00;;;;;;4996722;28;20315;-77
2023/07/17 02:37:31;;;;;;;4.40;4.00;;;16.00;1.00;;;;;;4998247;28;20196;-76
2023/07/17 02:39:57;;;;;;;6.55;4.32;;;16.00;1.00;;;;;;5001473;28;20282;-75
2023/07/17 02:42:23;;;;;;;5.25;4.43;;;15.90;1.00;;;;;;4990207;28;20610;-76
2023/07/17 02:44:49;;;;;;;4.70;4.30;;;15.70;1.00;;;;;;4994160;28;20216;-77
2023/07/17 02:47:15;;;;;;;5.45;4.78;;;15.70;1.00;;;;;;4989708;28;20257;-75
2023/07/17 02:49:41;;;;;;;6.47;4.65;;;15.70;1.00;;;;;;4994316;28;20705;-75
2023/07/17 02:52:07;;;;;;;5.45;4.53;;;15.70;1.00;;;;;;4992950;28;20199;-77
2023/07/17 02:54:36;;;;;;;5.55;4.65;;;15.80;1.00;;;;;;4996545;28;20278;-75
2023/07/17 02:57:02;;;;;;;5.72;4.90;;;15.90;1.00;;;;;;4998692;28;20175;-77
2023/07/17 02:59:27;;;;;;;6.30;4.57;;;15.90;1.00;;;;;;5002497;28;20601;-75
2023/07/17 03:01:53;;;;;;;5.63;5.03;;;15.90;1.00;;;;;;4991061;28;20239;-76
2023/07/17 03:04:18;;;;;;;6.72;5.10;;;16.00;1.00;;;;;;4994573;28;20294;-77
2023/07/17 03:06:44;;;;;;;6.03;4.50;;;15.90;1.00;;;;;;4991015;28;20176;-77
2023/07/17 03:09:09;;;;;;;6.07;5.00;;;15.80;1.00;;;;;;4995772;28;20214;-75
2023/07/17 03:11:35;;;;;;;5.88;4.20;;;15.40;1.00;;;;;;4992055;28;20271;-77
2023/07/17 03:14:01;;;;;;;5.85;4.65;;;15.40;1.00;;;;;;4995957;28;20191;-75
2023/07/17 03:16:26;;;;;;;5.80;4.78;;;15.40;1.00;;;;;;4994105;28;20222;-75
2023/07/17 03:18:52;;;;;;;6.07;4.53;;;15.60;1.00;;;;;;4994481;28;20199;-75
2023/07/17 03:21:19;;;;;;;6.25;5.15;;;15.70;1.00;;;;;;4979712;28;20197;-75
2023/07/17 03:23:44;;;;;;;7.60;4.93;;;15.80;1.00;;;;;;4976242;28;20759;-76
2023/07/17 03:26:10;;;;;;;7.15;4.75;;;15.10;1.00;;;;;;4997182;28;20275;-76
2023/07/17 03:28:37;;;;;;;6.60;5.13;;;15.10;1.00;;;;;;4994984;28;20235;-74
2023/07/17 03:31:02;;;;;;;5.20;4.60;;;15.30;1.00;;;;;;4995429;28;20613;-75
2023/07/17 03:33:28;;;;;;;5.80;4.65;;;15.20;1.00;;;;;;4979519;28;20233;-75
2023/07/17 03:35:53;;;;;;;6.82;4.60;;;15.50;1.00;;;;;;4995972;28;20203;-77
2023/07/17 03:38:19;;;;;;;5.82;5.10;;;15.60;1.00;;;;;;4996567;28;20191;-76
2023/07/17 03:40:45;;;;;;;5.45;4.40;;;15.50;1.00;;;;;;4995266;28;20261;-75
2023/07/17 03:43:10;;;;;;;6.35;5.05;;;15.50;1.00;;;;;;4995533;28;20570;-75
2023/07/17 03:45:36;;;;;;;5.72;4.60;;;15.70;1.00;;;;;;4992789;28;20242;-77
2023/07/17 03:48:01;;;;;;;5.97;4.35;;;15.80;1.00;;;;;;4992729;28;21016;-77
2023/07/17 03:50:28;;;;;;;4.93;4.38;;;15.90;1.00;;;;;;4993797;28;20202;-75
2023/07/17 03:52:54;;;;;;;7.22;4.82;;;16.00;1.00;;;;;;4994807;28;20186;-75
2023/07/17 03:55:19;;;;;;;4.90;4.20;;;16.20;1.00;;;;;;4972747;28;20208;-77
2023/07/17 03:57:45;;;;;;;5.00;4.50;;;16.30;1.00;;;;;;4994620;28;20220;-74
2023/07/17 04:00:14;;;;;;;4.78;4.28;;;16.30;1.00;;;;;;4992782;28;20605;-77
2023/07/17 04:02:44;;;;;;;8.13;5.22;;;16.30;1.00;;;;;;4995626;28;20267;-76
2023/07/17 04:05:13;;;;;;;5.38;4.68;;;16.10;1.00;;;;;;4990303;28;20216;-74
2023/07/17 04:07:39;;;;;;;5.63;4.50;;;15.90;1.00;;;;;;4996232;28;20250;-75
2023/07/17 04:10:05;;;;;;;6.05;4.65;;;15.90;1.00;;;;;;4991087;28;20215;-77
2023/07/17 04:12:32;;;;;;;5.18;4.50;;;15.70;1.00;;;;;;4994657;28;20188;-77
2023/07/17 04:14:57;;;;;;;6.72;4.70;;;15.70;1.00;;;;;;4996458;28;20219;-75
2023/07/17 04:17:23;;;;;;;5.95;4.80;;;15.80;1.00;;;;;;4997580;28;20636;-75
2023/07/17 04:19:49;;;;;;;7.18;5.55;;;15.80;1.00;;;;;;5001070;28;20219;-78
2023/07/17 04:22:14;;;;;;;6.22;4.45;;;15.90;1.00;;;;;;4996466;28;20274;-75
2023/07/17 04:24:40;;;;;;;5.13;4.47;;;16.10;1.00;;;;;;4999214;28;20619;-76
2023/07/17 04:27:05;;;;;;;5.45;4.47;;;16.40;1.00;;;;;;4997319;28;20183;-77
2023/07/17 04:29:31;;;;;;;5.60;5.00;;;16.30;1.00;;;;;;4998472;28;20580;-77
2023/07/17 04:31:57;;;;;;;6.60;5.00;;;16.50;1.00;;;;;;4994083;28;20191;-77
2023/07/17 04:34:23;;;;;;;5.90;4.90;;;16.50;1.00;;;;;;4999170;28;20208;-75
2023/07/17 04:36:48;;;;;;;5.53;4.45;;;16.60;1.00;;;;;;4993338;28;20187;-75
2023/07/17 04:39:14;;;;;;;6.45;4.70;;;16.80;1.00;;;;;;4978884;28;20191;-76
2023/07/17 04:41:40;;;;;;;5.72;5.05;;;16.90;1.00;;;;;;4998439;28;20188;-76
2023/07/17 04:44:05;;;;;;;6.38;4.97;;;17.00;1.00;;;;;;4981064;28;20215;-75
2023/07/17 04:46:31;;;;;;;7.85;4.55;;;17.10;1.00;;;;;;4996362;28;20188;-76
2023/07/17 04:48:58;;;;;;;6.40;4.55;;;16.70;1.00;;;;;;4988364;28;20597;-76
2023/07/17 04:51:25;;;;;;;5.18;4.68;;;17.10;1.00;;;;;;4991730;28;20555;-74
2023/07/17 04:53:51;;;;;;;5.60;4.72;;;17.40;1.00;;;;;;4993993;28;20184;-75
2023/07/17 04:56:16;;;;;;;6.88;4.78;;;17.60;1.00;;;;;;4990661;28;20218;-76
2023/07/17 04:58:42;;;;;;;5.25;4.75;;;17.60;1.00;;;;;;4990805;28;20188;-76
2023/07/17 05:01:08;;;;;;;5.25;4.55;;;17.70;1.00;;;;;;4996446;28;20236;-75
2023/07/17 05:03:33;;;;;;;6.43;4.70;;;17.90;1.00;;;;;;5001042;28;20187;-75
2023/07/17 05:05:59;;;;;;;5.43;4.75;;;18.70;1.00;;;;;;4975312;28;20624;-74
2023/07/17 05:08:25;;;;;;;5.28;3.72;;;18.70;1.00;;;;;;4995887;28;20652;-75
2023/07/17 05:10:59;;;;;;;4.22;3.83;;;21.10;1.00;;;;;;4975278;28;20181;-76
2023/07/17 05:13:26;;;;;;;3.83;3.53;;;21.10;1.00;;;;;;4997652;28;20179;-76
2023/07/17 05:15:52;;;;;;;4.47;3.70;;;22.30;1.00;;;;;;4998865;28;20209;-75
2023/07/17 05:18:18;;;;;;;4.15;3.50;;;23.50;1.00;;;;;;4999379;28;20183;-75
2023/07/17 05:20:49;;;;;;;5.00;3.35;;;24.60;1.00;;;;;;4999349;28;20179;-77
2023/07/17 05:23:15;;;;;;;4.95;3.45;;;25.50;1.00;;;;;;4994973;28;20202;-77
2023/07/17 05:25:50;;;;;;;5.60;3.80;;;26.20;1.00;;;;;;4996137;28;20218;-76
2023/07/17 05:28:16;;;;;;;4.97;3.85;;;;;;;;;;4996429;28;20254;-76
2023/07/17 05:30:41;;;;;;;4.10;3.70;;;26.00;1.00;;;;;;4999097;28;20184;-75
2023/07/17 05:33:07;;;;;;;4.38;3.17;;;25.80;1.00;;;;;;4983880;28;20211;-75
2023/07/17 05:35:33;;;;;;;5.40;3.75;;;26.30;1.00;;;;;;5004168;28;20218;-77
2023/07/17 05:37:58;;;;;;;5.40;3.60;;;26.90;1.00;;;;;;4994692;28;20188;-76
2023/07/17 05:40:24;;;;;;;5.47;3.60;;;27.20;1.00;;;;;;4980383;28;20188;-77
2023/07/17 05:42:50;;;;;;;4.72;3.65;;;27.90;1.00;;;;;;4997652;28;20296;-77
2023/07/17 05:45:16;;;;;;;4.35;3.65;;;28.40;1.00;;;;;;4981443;28;20294;-75
2023/07/17 05:47:41;;;;;;;4.63;3.47;;;28.70;1.00;;;;;;4998522;28;20184;-75
2023/07/17 05:50:11;;;;;;;3.72;3.10;;;28.50;1.00;;;;;;4999185;28;20194;-75
2023/07/17 05:52:36;;;;;;;6.18;3.83;;;28.90;1.00;;;;;;4998752;28;20199;-75
2023/07/17 05:55:03;;;;;;;5.97;3.80;;;;;;;;;;4998014;28;20263;-75
2023/07/17 05:57:28;;;;;;;4.97;3.83;;;27.40;1.00;;;;;;4997917;28;20180;-75
2023/07/17 05:59:54;;;;;;;3.60;3.25;;;26.50;1.00;;;;;;4995853;28;20184;-77
2023/07/17 06:02:20;;;;;;;5.53;3.47;;;26.00;1.00;;;;;;4996359;28;20207;-75
2023/07/17 06:04:46;;;;;;;5.20;3.80;;;25.50;1.00;;;;;;4991999;28;20695;-78
2023/07/17 06:07:13;;;;;;;4.32;3.75;;;25.80;1.00;;;;;;4996516;28;20192;-77
2023/07/17 06:09:39;;;;;;;5.35;3.90;;;26.20;1.00;;;;;;4993255;28;20721;-77
2023/07/17 06:12:05;;;;;;;6.28;3.85;;;25.90;1.00;;;;;;4995490;28;20191;-76
2023/07/17 06:14:31;;;;;;;7.82;4.13;;;25.00;1.00;;;;;;5001541;28;20215;-75
2023/07/17 06:16:56;;;;;;;5.22;3.67;;;23.80;1.00;;;;;;4998380;28;20203;-76
2023/07/17 06:19:22;;;;;;;6.30;4.05;;;23.40;1.00;;;;;;4996041;28;20267;-77
2023/07/17 06:21:47;;;;;;;4.10;3.45;;;24.70;1.00;;;;;;4972784;28;20179;-76
2023/07/17 06:24:13;;;;;;;6.25;3.85;;;27.60;99.90;;;;;;5000368;28;20211;-75
2023/07/17 06:26:39;;;;;;;5.57;3.72;;;27.90;1.00;;;;;;4999828;28;20188;-74
2023/07/17 06:29:05;;;;;;;5.70;4.00;;;28.70;1.00;;;;;;4997920;28;20262;-74
2023/07/17 06:31:31;;;;;;;6.38;3.90;;;29.40;1.00;;;;;;4997904;28;20175;-75
2023/07/17 06:33:57;;;;;;;7.10;3.92;;;29.80;99.90;;;;;;4998140;28;20599;-74
2023/07/17 06:36:22;;;;;;;5.78;4.00;;;29.80;1.00;;;;;;4995086;28;20188;-77
2023/07/17 06:38:48;;;;;;;6.05;4.13;;;30.50;1.00;;;;;;5000256;28;20187;-76
2023/07/17 06:41:14;;;;;;;4.78;4.05;;;29.90;1.00;;;;;;4990503;28;20180;-75
2023/07/17 06:43:40;;;;;;;7.63;4.45;;;28.60;1.00;;;;;;4997125;28;20199;-76
2023/07/17 06:46:06;;;;;;;5.45;4.10;;;28.10;1.00;;;;;;4991733;28;20664;-75
2023/07/17 06:48:32;;;;;;;5.25;4.60;;;29.20;1.00;;;;;;4997097;28;20670;-76
2023/07/17 06:54:19;;;;;;;6.15;4.15;;;31.10;1.00;;;;;;4997563;28;20657;-74
2023/07/17 06:56:45;;;;;;;8.45;5.30;;;32.00;1.00;;;;;;4990076;28;20303;-73
2023/07/17 06:59:11;;;;;;;6.82;4.72;;;33.10;1.00;;;;;;4995601;28;20187;-77
2023/07/17 07:01:37;;;;;;;5.88;4.85;;;33.50;1.00;;;;;;4979333;28;20551;-72
2023/07/17 07:04:02;;;;;;;5.45;3.55;;;33.80;1.00;;;;;;4989268;28;20207;-74
2023/07/17 07:06:28;;;;;;;4.18;3.63;;;33.90;1.00;;;;;;4990584;28;20246;-73
2023/07/17 07:08:54;;;;;;;3.45;3.00;;;33.60;1.00;;;;;;4984406;28;20176;-73
2023/07/17 07:11:20;;;;;;;5.15;3.47;;;33.20;1.00;;;;;;4987691;28;20185;-75
2023/07/17 07:13:46;;;;;;;4.32;3.30;;;33.00;1.00;;;;;;4999769;28;20182;-76
2023/07/17 07:16:12;;;;;;;4.70;3.20;;;33.70;1.00;;;;;;4991047;28;20276;-76
2023/07/17 07:18:37;;;;;;;4.80;3.53;;;34.40;1.00;;;;;;4995895;28;20186;-74
2023/07/17 07:21:03;;;;;;;4.10;3.40;;;35.10;1.00;;;;;;4992425;28;20711;-74
2023/07/17 07:23:29;;;;;;;4.20;3.40;;;34.70;1.00;;;;;;4992581;28;20187;-75
2023/07/17 07:25:54;;;;;;;3.53;3.05;;;34.90;1.00;;;;;;4974943;28;20254;-75
2023/07/17 07:28:21;;;;;;;3.95;3.50;;;34.30;1.00;;;;;;4978395;28;20183;-76
2023/07/17 07:30:47;;;;;;;5.80;3.95;;;33.90;1.00;;;;;;4969817;28;20191;-75
2023/07/17 07:33:15;;;;;;;6.45;3.85;;;31.80;1.00;;;;;;4985407;28;20664;-76
2023/07/17 07:35:50;;;;;;;5.18;3.67;;;29.50;1.00;;;;;;4986393;28;20200;-75
2023/07/17 07:38:29;;;;;;;4.72;3.55;;;27.30;1.00;;;;;;4992223;28;20274;-74
2023/07/17 07:40:55;;;;;;;4.50;3.47;;;25.80;1.00;;;;;;4993109;28;20732;-74
2023/07/17 07:43:21;;;;;;;5.43;3.60;;;25.00;1.00;;;;;;4995871;28;20203;-75
2023/07/17 07:46:02;;;;;;;5.75;4.07;;;24.30;1.00;;;;;;4996960;28;20212;-76
2023/07/17 07:48:31;;;;;;;5.60;3.70;;;24.00;1.00;;;;;;4991318;28;21140;-74
2023/07/17 07:51:04;;;;;;;3.92;3.40;;;23.70;1.00;;;;;;4991554;28;20180;-75
2023/07/17 07:53:55;;;;;;;4.32;3.20;;;23.50;1.00;;;;;;4990184;28;20718;-76
2023/07/17 07:56:21;;;;;;;5.90;3.70;;;23.70;1.00;;;;;;4995993;28;20197;-75
2023/07/17 08:02:10;;;;;;;5.45;3.60;;;23.70;1.00;;;;;;4998284;28;20211;-76
2023/07/17 08:08:04;;;;;;;5.47;3.35;;;23.80;1.00;;;;;;4933655;28;20202;-76
2023/07/17 08:10:37;;;;;;;6.90;3.75;;;23.60;1.00;;;;;;4992627;28;20557;-75
2023/07/17 08:13:04;;;;;;;5.72;3.47;;;23.80;1.00;;;;;;4989463;28;20188;-75
2023/07/17 08:15:30;;;;;;;4.63;3.35;;;23.90;1.00;;;;;;4976577;28;20203;-75
2023/07/17 08:17:56;;;;;;;5.07;3.28;;;23.70;1.00;;;;;;4995473;28;20195;-76
2023/07/17 08:20:22;;;;;;;5.40;2.97;;;23.60;1.00;;;;;;4992505;28;20187;-76
2023/07/17 08:22:50;;;;;;;5.65;3.00;;;23.70;1.00;;;;;;4990698;28;20198;-74
2023/07/17 08:25:15;;;;;;;7.22;3.70;;;23.40;1.00;;;;;;4988515;28;20295;-73
2023/07/17 08:27:41;;;;;;;5.47;3.63;;;;;;;;;;4990997;28;20255;-75
2023/07/17 08:30:36;;;;;;;6.10;3.63;;;23.20;1.00;;;;;;4975173;28;20206;-78
2023/07/17 08:33:01;;;;;;;7.45;3.55;;;23.00;1.00;;;;;;4999237;28;20184;-74
2023/07/17 08:35:27;;;;;;;5.10;3.20;;;23.30;1.00;;;;;;4992630;28;20199;-75
2023/07/17 08:37:55;;;;;;;4.20;3.40;;;23.60;1.00;;;;;;4996634;28;20924;-75
2023/07/17 08:40:21;;;;;;;3.45;2.85;;;;;;;;;;4997824;28;20528;-78
2023/07/17 08:42:50;;;;;;;3.63;3.03;;;23.50;1.00;;;;;;4995664;28;20227;-77
2023/07/17 08:45:16;;;;;;;3.42;2.70;;;23.50;1.00;;;;;;4975372;28;20215;-73
2023/07/17 08:47:42;;;;;;;3.45;2.70;;;23.60;1.00;;;;;;4994421;28;20565;-74
2023/07/17 08:50:09;;;;;;;3.80;2.80;;;23.70;1.00;;;;;;4990875;28;20180;-75
2023/07/17 08:52:35;;;;;;;4.78;2.58;;;23.60;1.00;;;;;;4999445;28;20222;-74
2023/07/17 08:55:01;;;;;;;4.00;2.13;;;23.70;1.00;;;;;;5002799;28;20232;-74
2023/07/17 08:57:27;;;;;;;3.85;2.20;;;;;;;;;;4998677;28;20188;-74
2023/07/17 08:59:55;;;;;;;3.47;2.28;;;23.60;1.00;;;;;;4998879;28;20187;-77
2023/07/17 09:02:22;;;;;;;4.00;2.58;;;23.50;1.00;;;;;;4994651;28;20271;-76
2023/07/17 09:04:48;;;;;;;4.35;2.78;;;23.50;1.00;;;;;;4995445;28;20212;-75
2023/07/17 09:07:13;;;;;;;3.05;2.40;;;23.40;1.00;;;;;;4999880;28;20451;-73
2023/07/17 09:09:39;;;;;;;3.35;2.00;;;23.10;1.00;;;;;;4975377;28;20175;-75
2023/07/17 09:12:10;;;;;;;3.60;2.03;;;23.10;1.00;;;;;;4997315;28;20195;-75
2023/07/17 09:14:39;;;;;;;2.33;1.75;;;23.00;1.00;;;;;;4992168;28;20211;-77
2023/07/17 09:17:07;;;;;;;3.15;1.80;;;22.90;1.00;;;;;;4995974;28;20194;-76
2023/07/17 09:19:34;;;;;;;4.18;1.83;;;22.90;1.00;;;;;;5000016;28;20191;-75
2023/07/17 09:22:05;;;;;;;3.50;1.88;;;23.00;1.00;;;;;;4992045;28;20188;-75
2023/07/17 09:24:36;;;;;;;2.67;1.77;;;23.10;1.00;;;;;;4998814;28;20311;-76
2023/07/17 09:27:06;;;;;;;1.67;1.58;;;23.20;1.00;;;;;;4981324;28;20225;-77
2023/07/17 09:29:33;;;;;;;2.05;1.70;;;23.40;1.00;;;;;;4993282;28;20180;-75
2023/07/17 09:32:18;;;;;;;2.83;1.70;;;23.60;1.00;;;;;;4977767;28;20180;-75
2023/07/17 09:34:48;;;;;;;3.00;2.00;;;23.70;1.00;;;;;;4995754;28;20380;-74
2023/07/17 09:37:14;;;;;;;2.58;2.30;;;23.70;1.00;;;;;;4977677;28;20638;-76
2023/07/17 09:39:40;;;;;;;2.67;2.08;;;23.60;1.00;;;;;;4996704;28;20215;-76
2023/07/17 09:42:40;;;;;;;3.20;1.85;;;23.60;1.00;;;;;;4996738;28;20191;-76
2023/07/17 09:45:19;;;;;;;4.60;2.05;;;23.60;1.00;;;;;;4993749;28;20588;-75
2023/07/17 09:47:47;;;;;;;3.03;2.15;;;23.30;1.00;;;;;;4997259;28;20263;-73
2023/07/17 09:50:13;;;;;;;3.13;2.00;;;23.70;1.00;;;;;;4977214;28;20597;-75
2023/07/17 09:52:40;;;;;;;2.72;1.88;;;23.70;1.00;;;;;;4991970;28;20187;-74
2023/07/17 09:55:06;;;;;;;4.82;2.30;;;23.80;1.00;;;;;;4995282;28;20287;-76
2023/07/17 09:57:36;;;;;;;2.20;2.00;;;24.00;1.00;;;;;;5001014;28;20183;-75
2023/07/17 10:00:23;;;;;;;2.90;1.92;;;23.90;1.00;;;;;;4993661;28;20592;-76
2023/07/17 10:03:09;;;;;;;2.03;1.83;;;23.90;1.00;;;;;;4981869;28;20570;-76
2023/07/17 10:05:36;;;;;;;3.38;1.92;;;23.90;1.00;;;;;;4998696;28;20237;-75
2023/07/17 10:08:10;;;;;;;3.63;2.40;;;24.10;1.00;;;;;;4998492;28;20222;-75
2023/07/17 10:13:46;;;;;;;2.80;2.10;;;24.20;1.00;;;;;;4960463;28;20717;-75
2023/07/17 10:16:14;;;;;;;2.92;1.98;;;24.30;1.00;;;;;;4998480;28;20199;-75
2023/07/17 10:18:53;;;;;;;3.20;1.92;;;24.50;1.00;;;;;;4994974;28;20251;-74
2023/07/17 10:21:19;;;;;;;2.40;2.00;;;24.60;1.00;;;;;;4973798;28;20215;-74
2023/07/17 10:24:12;;;;;;;2.90;2.00;;;24.80;1.00;;;;;;4980546;28;20184;-77
2023/07/17 10:26:38;;;;;;;2.83;2.00;;;25.00;1.00;;;;;;4996837;28;20181;-73
2023/07/17 10:29:05;;;;;;;3.70;2.33;;;25.50;1.00;;;;;;4997026;28;20190;-76
2023/07/17 10:31:33;;;;;;;4.97;2.03;;;25.70;1.00;;;;;;4992507;28;20172;-75
2023/07/17 10:34:02;;;;;;;2.67;2.30;;;25.60;1.00;;;;;;4993934;28;20667;-75
2023/07/17 10:36:45;;;;;;;3.15;2.00;;;25.50;1.00;;;;;;4996016;28;20184;-75
2023/07/17 10:39:26;;;;;;;3.28;1.88;;;25.40;1.00;;;;;;4993582;28;20181;-73
2023/07/17 10:41:52;;;;;;;2.47;1.77;;;25.20;1.00;;;;;;4994008;28;20180;-75
2023/07/17 10:44:22;;;;;;;2.53;2.20;;;25.00;1.00;;;;;;4994275;28;20707;-74
2023/07/17 10:46:50;;;;;;;3.00;1.90;;;25.00;1.00;;;;;;4985555;28;20222;-75
2023/07/17 10:49:17;;;;;;;4.30;2.38;;;24.90;1.00;;;;;;4991740;28;20388;-74
2023/07/17 10:51:44;;;;;;;3.03;2.00;;;24.90;1.00;;;;;;4993816;28;20644;-73
2023/07/17 10:54:14;;;;;;;2.72;1.75;;;24.70;1.00;;;;;;4972589;28;20192;-73
2023/07/17 10:56:42;;;;;;;2.67;1.80;;;24.70;1.00;;;;;;4995445;28;20192;-76
2023/07/17 10:59:08;;;;;;;3.80;1.98;;;24.70;1.00;;;;;;4989957;28;20180;-75
2023/07/17 11:01:34;;;;;;;3.05;1.90;;;25.00;1.00;;;;;;4994094;28;20332;-74
2023/07/17 11:04:03;;;;;;;2.20;1.80;;;24.90;1.00;;;;;;4995998;28;20242;-75
2023/07/17 11:06:30;;;;;;;4.13;2.30;;;24.70;1.00;;;;;;4996332;28;20528;-74
2023/07/17 11:08:57;;;;;;;3.17;2.00;;;24.50;1.00;;;;;;4996725;28;20722;-75
2023/07/17 11:11:23;;;;;;;4.35;1.95;;;24.40;1.00;;;;;;4984008;28;20225;-73
2023/07/17 11:13:54;;;;;;;2.85;1.77;;;24.60;1.00;;;;;;4994934;28;20185;-73
2023/07/17 11:16:22;;;;;;;2.67;1.80;;;24.70;1.00;;;;;;4989844;28;20275;-76
2023/07/17 11:18:52;;;;;;;2.60;1.85;;;24.70;1.00;;;;;;4993146;28;20454;-75
2023/07/17 11:21:25;;;;;;;4.25;1.90;;;24.70;1.00;;;;;;4975082;28;20192;-75
2023/07/17 11:23:53;;;;;;;3.65;1.80;;;24.90;1.00;;;;;;4991309;28;20180;-72
2023/07/17 11:26:22;;;;;;;3.05;1.60;;;25.10;1.00;;;;;;4988626;28;20618;-75
2023/07/17 11:32:13;;;;;;;3.60;1.70;;;25.50;1.00;;;;;;4971914;28;20235;-73
2023/07/17 11:38:04;;;;;;;2.28;1.35;;;25.00;1.00;;;;;;4993193;28;20199;-73
2023/07/17 11:40:30;;;;;;;2.92;1.75;;;24.90;1.00;;;;;;4997809;28;20444;-73
2023/07/17 11:42:59;;;;;;;5.15;1.83;;;24.90;1.00;;;;;;4994030;28;20714;-74
2023/07/17 11:45:37;;;;;;;2.85;1.40;;;25.20;1.00;;;;;;4964455;28;20361;-73
2023/07/17 11:48:05;;;;;;;2.75;1.50;;;25.30;1.00;;;;;;4971910;28;20175;-72
2023/07/17 11:50:30;;;;;;;2.45;1.42;;;25.10;1.00;;;;;;4996612;28;20183;-73
2023/07/17 11:53:22;;;;;;;2.38;1.33;;;25.10;1.00;;;;;;4992377;28;20700;-73
2023/07/17 11:55:51;;;;;;;3.13;1.60;;;24.90;1.00;;;;;;4981958;28;20211;-74
2023/07/17 11:58:34;;;;;;;2.50;1.73;;;24.70;1.00;;;;;;4988347;28;20208;-73
2023/07/17 12:10:28;;;;;;;5.38;1.60;;;24.80;1.00;;;;;;4981315;28;20198;-73
2023/07/17 12:12:53;;;;;;;3.40;1.75;;;25.10;1.00;;;;;;4983871;28;20263;-73
2023/07/17 12:18:42;;;;;;;3.03;1.85;;;25.40;1.00;;;;;;4983325;28;20383;-73
2023/07/17 12:21:08;;;;;;;3.63;1.90;;;25.20;1.00;;;;;;4983431;28;20191;-73
2023/07/17 12:23:56;;;;;;;3.80;1.60;;;25.40;1.00;;;;;;4984253;28;20180;-73
2023/07/17 12:36:52;;;;;;;3.65;1.75;;;24.80;1.00;;;;;;5004661;23;20250;-74
2023/07/17 12:39:18;;;;;;;8.32;2.08;;;24.60;1.00;;;;;;4989334;28;20188;-75
2023/07/17 12:41:44;;;;;;;3.75;2.00;;;24.70;1.00;;;;;;4994436;28;20179;-73
2023/07/17 12:48:06;;;;;;;4.55;1.95;;;25.10;1.00;;;;;;4993859;28;20206;-75
2023/07/17 12:51:03;;;;;;;3.05;1.70;;;25.30;1.00;;;;;;4991600;28;20169;-75
2023/07/17 12:54:02;;;;;;;2.85;1.60;;;25.20;1.00;;;;;;4978935;28;20195;-74
2023/07/17 12:56:32;;;;;;;2.75;1.63;;;24.90;1.00;;;;;;4996178;28;20181;-74
2023/07/17 12:59:00;;;;;;;3.83;1.77;;;25.10;1.00;;;;;;4991368;28;20216;-75
2023/07/17 13:01:26;;;;;;;2.63;1.70;;;25.00;1.00;;;;;;4995289;28;20250;-75
2023/07/17 13:03:57;;;;;;;4.38;2.40;;;25.00;1.00;;;;;;4993911;28;20180;-76
2023/07/17 13:06:37;;;;;;;2.55;1.85;;;25.10;1.00;;;;;;4985810;28;20184;-77
2023/07/17 13:09:13;;;;;;;76.88;9.02;;;25.10;1.00;;;;;;4991122;28;20188;-78
2023/07/17 13:11:43;;;;;;;3.80;1.92;;;25.30;1.00;;;;;;4996924;28;20267;-76
2023/07/17 13:14:19;;;;;;;2.63;2.00;;;25.50;1.00;;;;;;4974449;28;20192;-77
2023/07/17 13:17:11;;;;;;;4.03;1.88;;;25.50;1.00;;;;;;4978041;28;20207;-74
2023/07/17 13:19:38;;;;;;;2.50;1.75;;;25.50;1.00;;;;;;4980720;28;20268;-75
2023/07/17 13:25:26;;;;;;;4.30;2.60;;;25.10;1.00;;;;;;5011355;23;20239;-75
2023/07/17 13:27:52;;;;;;;2.75;2.50;;;25.00;1.00;;;;;;4994821;28;20552;-74
2023/07/17 13:30:17;;;;;;;3.72;2.30;;;25.00;1.00;;;;;;5000078;28;20238;-74
2023/07/17 13:32:43;;;;;;;3.47;2.10;;;24.90;1.00;;;;;;4991367;28;20628;-74
2023/07/17 13:35:30;;;;;;;3.63;2.13;;;24.90;1.00;;;;;;5001754;28;20270;-75
2023/07/17 13:41:47;;;;;;;7.03;3.22;;;24.90;1.00;;;;;;4984312;28;20199;-74
2023/07/17 13:44:13;;;;;;;4.07;2.47;;;24.90;1.00;;;;;;4997557;28;20655;-74
2023/07/17 13:47:16;;;;;;;6.90;2.88;;;24.50;1.00;;;;;;4979951;28;20596;-75
2023/07/17 13:49:42;;;;;;;3.05;2.72;;;24.20;1.00;;;;;;4989058;28;20534;-75
2023/07/17 13:52:21;;;;;;;3.58;2.25;;;24.30;1.00;;;;;;4988912;28;20183;-73
2023/07/17 13:54:47;;;;;;;3.25;2.70;;;24.50;1.00;;;;;;4991818;28;20216;-74
2023/07/17 13:57:14;;;;;;;3.90;2.20;;;24.50;1.00;;;;;;4994718;28;20226;-74
2023/07/17 13:59:42;;;;;;;3.45;2.40;;;24.30;1.00;;;;;;4993265;28;20321;-74
2023/07/17 14:02:07;;;;;;;4.15;2.58;;;24.20;1.00;;;;;;4987949;28;20210;-74